Nuiqsut Airport Nuiqsut US
ICAO: PAQT
IATA:
Category: Medium
Scheduled Services:

Elevation: 38 ft
TransAlt. 0 ft.

Airport Communications:
ANCHORAGE CNTR:119.4
ASOS:122.5
CTAF:122.8
DEADHORSE RDO:122.5

PAQT Zoom In..

If you have problems with the map follow the link
https://www.worldairports.se/pages/airport.php?
ICAO=PAQT

Runways:

(A) RW 05 length 4589 ft width 100 ft
---- / hdg 49

(B) RW 23 length 4589 ft width 100 ft
---- / hdg 229

Location; PAQT
Day. 14 / Time. 20.53 Zulu
* Altimeter: 29.58
* Temperature: -26° c. 14.8°f.
* Wind from: 210° Speed 04 kn.
Dewpoint: -27° c.
Visibility: 2 m.
Clouds: Overcast 3600 ft.
Conditions: Light Snow.Conditions: Mist.

PAQT 142053Z AUTO 21004KT 2 1/2SM -SN BR OVC036 M26/M27 A2958 RMK UPB07E09SNE07B30 SLP018 P0000 60000 T12561272 53004 TSNO VIA AUTODIAL


Wind From 210°
Speed 04 kn.

 
 
jpsmedia.com for Web Design worldairports.se 2018   terms of use